Time;durP1;ratioP1;P1;durP2;ratioP2;P2;SDS_P1;SDS_P2;PMS_P1;PMS_P2;Temp;Humidity;BMP_temperature;BMP_pressure;BME280_temperature;BME280_humidity;BME280_pressure;Samples;Min_cycle;Max_cycle;Signal;HPM_P1;HPM_P2
2023/10/28 00:00:18;;;;;;;13.30;9.10;;;;;;;8.25;100.00;98693.30;107291;1273;102628;-79
2023/10/28 00:03:24;;;;;;;15.80;9.30;;;;;;;8.25;100.00;98695.79;107300;1273;103454;-80
2023/10/28 00:06:09;;;;;;;11.50;8.10;;;;;;;8.20;100.00;98698.56;107309;1272;99017;-81
2023/10/28 00:08:55;;;;;;;12.60;8.20;;;;;;;8.17;100.00;98701.02;107269;1273;95379;-81
2023/10/28 00:11:41;;;;;;;9.50;7.20;;;;;;;8.13;100.00;98705.14;107312;1273;95591;-81
2023/10/28 00:14:27;;;;;;;9.90;7.60;;;;;;;8.09;100.00;98705.02;107376;1272;103016;-81
2023/10/28 00:17:12;;;;;;;8.80;6.30;;;;;;;8.10;100.00;98707.75;107348;1272;100215;-80
2023/10/28 00:19:58;;;;;;;8.40;6.20;;;;;;;8.08;100.00;98712.61;107234;1272;97836;-81
2023/10/28 00:22:48;;;;;;;8.50;6.00;;;;;;;8.06;100.00;98716.52;107294;1276;95549;-80
2023/10/28 00:25:33;;;;;;;7.80;5.50;;;;;;;8.03;100.00;98722.94;107323;1273;95814;-81
2023/10/28 00:28:18;;;;;;;7.40;4.90;;;;;;;7.97;100.00;98727.28;107343;1272;101318;-80
2023/10/28 00:31:06;;;;;;;7.30;5.30;;;;;;;7.87;100.00;98728.37;107138;1272;100575;-80
2023/10/28 00:33:52;;;;;;;7.00;4.80;;;;;;;7.81;100.00;98737.64;107140;1272;98534;-81
2023/10/28 00:36:37;;;;;;;4.90;4.20;;;;;;;7.77;100.00;98738.36;107115;1276;96006;-81
2023/10/28 00:39:22;;;;;;;5.70;4.00;;;;;;;7.71;100.00;98743.32;107199;1273;95625;-81
2023/10/28 00:42:07;;;;;;;5.80;4.00;;;;;;;7.67;100.00;98749.85;107325;1273;102700;-81
2023/10/28 00:44:54;;;;;;;6.90;4.30;;;;;;;7.68;100.00;98751.00;107333;1272;99186;-81
2023/10/28 00:47:44;;;;;;;7.60;4.60;;;;;;;7.69;100.00;98748.49;107295;1273;97783;-80
2023/10/28 00:50:30;;;;;;;5.80;4.40;;;;;;;7.71;100.00;98748.02;107162;1273;95729;-81
2023/10/28 00:53:17;;;;;;;7.80;4.00;;;;;;;7.73;100.00;98747.79;107193;1273;95632;-81
2023/10/28 00:56:03;;;;;;;5.50;4.50;;;;;;;7.75;100.00;98750.19;107300;1272;102088;-81
2023/10/28 00:58:48;;;;;;;5.40;4.30;;;;;;;7.75;100.00;98753.02;107313;1273;99143;-80
2023/10/28 01:01:33;;;;;;;6.00;4.10;;;;;;;7.71;100.00;98751.72;107306;1272;97802;-81
2023/10/28 01:04:19;;;;;;;7.70;4.20;;;;;;;7.72;100.00;98751.67;107299;1273;95359;-80
2023/10/28 01:07:05;;;;;;;5.00;3.90;;;;;;;7.73;100.00;98757.95;107178;1273;94898;-81
2023/10/28 01:09:50;;;;;;;6.80;4.40;;;;;;;7.75;100.00;98760.10;107335;1273;101406;-81
2023/10/28 01:12:37;;;;;;;6.00;4.50;;;;;;;7.76;100.00;98762.55;107330;1273;99461;-81
2023/10/28 01:15:24;;;;;;;6.60;4.80;;;;;;;7.78;100.00;98764.42;107290;1273;97781;-81
2023/10/28 01:18:10;;;;;;;6.20;4.70;;;;;;;7.82;100.00;98770.35;107307;1272;95537;-81
2023/10/28 01:20:55;;;;;;;5.40;4.50;;;;;;;7.85;100.00;98771.24;107292;1272;95521;-80
2023/10/28 01:23:41;;;;;;;6.90;4.10;;;;;;;7.87;100.00;98772.62;107336;1273;101446;-80
2023/10/28 01:26:27;;;;;;;4.60;3.60;;;;;;;7.88;100.00;98771.44;107163;1274;99076;-81
2023/10/28 01:29:12;;;;;;;5.40;4.20;;;;;;;7.84;100.00;98770.31;107281;1273;99283;-80
2023/10/28 01:31:58;;;;;;;6.60;4.00;;;;;;;7.81;100.00;98769.59;107300;1272;95773;-81
2023/10/28 01:34:49;;;;;;;4.50;3.80;;;;;;;7.80;100.00;98771.48;107317;1273;95581;-81
2023/10/28 01:37:34;;;;;;;;;;;;;;;7.80;100.00;98773.60;107156;1273;102041;-81
2023/10/28 01:40:20;;;;;;;4.50;3.40;;;;;;;7.79;100.00;98776.67;107190;1272;100429;-80
2023/10/28 01:43:05;;;;;;;5.00;3.70;;;;;;;7.81;100.00;98777.05;107289;1273;97809;-80
2023/10/28 01:45:51;;;;;;;7.00;4.00;;;;;;;7.82;100.00;98781.19;107329;1273;95928;-81
2023/10/28 01:48:37;;;;;;;5.70;3.50;;;;;;;7.83;100.00;98785.16;107347;1272;95647;-81
2023/10/28 01:51:22;;;;;;;5.00;3.90;;;;;;;7.85;100.00;98788.79;107155;1272;101557;-80
2023/10/28 01:54:07;;;;;;;5.90;4.40;;;;;;;7.86;100.00;98788.95;107211;1273;99205;-81
2023/10/28 01:56:54;;;;;;;6.80;4.90;;;;;;;7.86;100.00;98790.92;107306;1273;97781;-81
2023/10/28 01:59:39;;;;;;;4.40;4.00;;;;;;;7.87;100.00;98788.91;107154;1272;95407;-80
2023/10/28 02:02:24;;;;;;;6.20;4.10;;;;;;;7.86;100.00;98784.61;107202;1272;95568;-81
2023/10/28 02:05:10;;;;;;;5.70;4.20;;;;;;;7.83;100.00;98787.54;107333;1273;101352;-81
2023/10/28 02:07:55;;;;;;;5.70;4.20;;;;;;;7.83;100.00;98791.23;107342;1273;99887;-81
2023/10/28 02:10:40;;;;;;;5.10;4.00;;;;;;;7.82;100.00;98792.92;107292;1273;99010;-81
2023/10/28 02:13:26;;;;;;;4.80;3.60;;;;;;;7.82;100.00;98796.27;107176;1272;95283;-81
2023/10/28 02:16:12;;;;;;;5.00;3.80;;;;;;;7.80;100.00;98797.42;107342;1273;95638;-81
2023/10/28 02:18:58;;;;;;;7.90;4.10;;;;;;;7.77;100.00;98798.60;107310;1272;101445;-81
2023/10/28 02:21:44;;;;;;;5.20;4.30;;;;;;;7.78;100.00;98799.48;107220;1272;99981;-81
2023/10/28 02:24:29;;;;;;;6.30;4.20;;;;;;;7.81;100.00;98801.54;106999;1273;97842;-81
2023/10/28 02:27:15;;;;;;;9.50;4.00;;;;;;;7.84;100.00;98806.23;107307;1273;95975;-80
2023/10/28 02:30:00;;;;;;;8.40;4.50;;;;;;;7.84;100.00;98809.67;107313;1273;95403;-81
2023/10/28 02:32:45;;;;;;;4.50;4.00;;;;;;;7.83;100.00;98813.90;107178;1273;101382;-80
2023/10/28 02:35:30;;;;;;;4.90;3.90;;;;;;;7.84;100.00;98817.91;107298;1272;99260;-81
2023/10/28 02:38:15;;;;;;;5.30;4.20;;;;;;;7.85;100.00;98820.08;107314;1272;97748;-81
2023/10/28 02:41:05;;;;;;;6.20;4.00;;;;;;;7.83;100.00;98821.90;107279;1276;96357;-80
2023/10/28 02:43:50;;;;;;;8.10;4.60;;;;;;;7.82;100.00;98822.11;107273;1273;96126;-80
2023/10/28 02:46:35;;;;;;;6.00;4.30;;;;;;;7.82;100.00;98826.01;107319;1272;102387;-80
2023/10/28 02:49:21;;;;;;;6.00;4.40;;;;;;;7.81;100.00;98829.45;107255;1273;101000;-80
2023/10/28 02:52:06;;;;;;;6.50;4.30;;;;;;;7.82;100.00;98832.08;107301;1272;99007;-81
2023/10/28 02:54:52;;;;;;;6.20;4.40;;;;;;;7.83;100.00;98836.34;107295;1272;95858;-79
2023/10/28 02:57:38;;;;;;;7.70;4.00;;;;;;;7.83;100.00;98842.77;107283;1272;95531;-80
2023/10/28 03:00:24;;;;;;;6.30;4.40;;;;;;;7.83;100.00;98844.33;107290;1273;102645;-80
2023/10/28 03:03:09;;;;;;;4.20;3.80;;;;;;;7.83;100.00;98846.02;107240;1273;100487;-80
2023/10/28 03:05:56;;;;;;;6.60;4.40;;;;;;;7.82;100.00;98844.34;107229;1272;97750;-80
2023/10/28 03:08:42;;;;;;;5.40;4.30;;;;;;;7.81;100.00;98844.78;107245;1272;95877;-79
2023/10/28 03:11:27;;;;;;;5.40;4.40;;;;;;;7.81;100.00;98843.14;107101;1273;95891;-79
2023/10/28 03:14:13;;;;;;;5.70;4.20;;;;;;;7.81;100.00;98846.88;107264;1273;102204;-80
2023/10/28 03:16:59;;;;;;;6.10;4.50;;;;;;;7.80;100.00;98856.42;107238;1273;99206;-79
2023/10/28 03:19:44;;;;;;;7.60;4.60;;;;;;;7.77;100.00;98862.93;107132;1272;97782;-80
2023/10/28 03:22:29;;;;;;;6.70;4.50;;;;;;;7.74;100.00;98869.19;107278;1272;95545;-80
2023/10/28 03:25:14;;;;;;;6.10;4.60;;;;;;;7.72;100.00;98871.06;107293;1273;95295;-79
2023/10/28 03:28:04;;;;;;;6.30;4.90;;;;;;;7.68;100.00;98876.70;107297;1272;101362;-79
2023/10/28 03:30:50;;;;;;;8.00;5.60;;;;;;;7.66;100.00;98879.81;107280;1273;99758;-79
2023/10/28 03:33:39;;;;;;;5.70;4.10;;;;;;;7.64;100.00;98886.14;107272;1272;99060;-80
2023/10/28 03:36:24;;;;;;;5.90;4.20;;;;;;;7.61;100.00;98886.55;107064;1272;95785;-79
2023/10/28 03:39:12;;;;;;;6.20;4.30;;;;;;;7.60;100.00;98890.55;107152;1272;95774;-79
2023/10/28 03:41:58;;;;;;;7.50;5.00;;;;;;;7.58;100.00;98893.08;107192;1272;101587;-80
2023/10/28 03:44:43;;;;;;;6.10;4.80;;;;;;;7.56;100.00;98896.24;107299;1273;100030;-80
2023/10/28 03:47:29;;;;;;;7.20;4.80;;;;;;;7.54;100.00;98896.58;107310;1272;97756;-80
2023/10/28 03:50:14;;;;;;;12.30;6.70;;;;;;;7.52;100.00;98892.44;107301;1273;95534;-81
2023/10/28 03:52:59;;;;;;;9.20;6.10;;;;;;;7.51;100.00;98890.55;107307;1272;95274;-80
2023/10/28 03:55:44;;;;;;;8.40;6.50;;;;;;;7.50;100.00;98891.02;107321;1273;101396;-81
2023/10/28 03:58:30;;;;;;;11.20;7.40;;;;;;;7.51;100.00;98896.66;107316;1273;99156;-81
2023/10/28 04:01:15;;;;;;;9.40;7.50;;;;;;;7.52;100.00;98896.99;107239;1274;99133;-81
2023/10/28 04:04:01;;;;;;;11.00;8.10;;;;;;;7.50;100.00;98897.65;107297;1272;95899;-81
2023/10/28 04:06:46;;;;;;;10.90;8.20;;;;;;;7.50;100.00;98900.52;107266;1272;95535;-81
2023/10/28 04:09:32;;;;;;;16.50;11.20;;;;;;;7.49;100.00;98899.66;107323;1273;102396;-80
2023/10/28 04:12:17;;;;;;;13.20;8.00;;;;;;;7.48;100.00;98900.48;107337;1273;100538;-81
2023/10/28 04:15:04;;;;;;;8.00;5.90;;;;;;;7.47;100.00;98899.01;107162;1273;99125;-81
2023/10/28 04:17:49;;;;;;;8.20;6.00;;;;;;;7.48;100.00;98900.69;107181;1272;95306;-81
2023/10/28 04:20:35;;;;;;;11.10;5.80;;;;;;;7.48;100.00;98903.35;107309;1272;95634;-81
2023/10/28 04:23:21;;;;;;;7.40;5.40;;;;;;;7.49;100.00;98904.70;107090;1273;102731;-81
2023/10/28 04:26:06;;;;;;;7.50;5.30;;;;;;;7.49;100.00;98904.83;107317;1273;99162;-81
2023/10/28 04:28:52;;;;;;;8.90;5.80;;;;;;;7.50;100.00;98909.50;107240;1272;98422;-79
2023/10/28 04:31:37;;;;;;;9.20;5.90;;;;;;;7.51;100.00;98916.63;107233;1273;95766;-79
2023/10/28 04:34:22;;;;;;;8.10;6.00;;;;;;;7.52;100.00;98922.05;107195;1273;95559;-79
2023/10/28 04:37:08;;;;;;;7.90;5.60;;;;;;;7.50;100.00;98924.70;107254;1273;101412;-79
2023/10/28 04:39:53;;;;;;;8.10;5.30;;;;;;;7.49;100.00;98925.77;107276;1272;99176;-80
2023/10/28 04:42:38;;;;;;;8.00;5.50;;;;;;;7.50;100.00;98927.41;107283;1273;97857;-79
2023/10/28 04:45:24;;;;;;;9.40;5.40;;;;;;;7.50;100.00;98929.05;107301;1273;95441;-79
2023/10/28 04:48:15;;;;;;;8.60;5.80;;;;;;;7.50;100.00;98932.41;107301;1273;95571;-79
2023/10/28 04:51:02;;;;;;;8.10;5.90;;;;;;;7.51;100.00;98933.60;107120;1274;101465;-79
2023/10/28 04:53:48;;;;;;;10.80;5.60;;;;;;;7.53;100.00;98939.04;107139;1273;99199;-79
2023/10/28 04:56:33;;;;;;;8.60;6.10;;;;;;;7.54;100.00;98942.11;107271;1273;99061;-80
2023/10/28 04:59:18;;;;;;;9.40;5.80;;;;;;;7.54;100.00;98941.58;107262;1272;95804;-80
2023/10/28 05:02:03;;;;;;;10.90;6.20;;;;;;;7.54;100.00;98947.16;107256;1272;95728;-80
2023/10/28 05:04:49;;;;;;;9.10;5.70;;;;;;;7.53;100.00;98954.17;107231;1273;101973;-79
2023/10/28 05:07:34;;;;;;;15.90;6.20;;;;;;;7.54;100.00;98955.92;107295;1273;99174;-80
2023/10/28 05:10:19;;;;;;;6.90;5.20;;;;;;;7.55;100.00;98956.70;107201;1273;97790;-79
2023/10/28 05:13:04;;;;;;;7.40;5.60;;;;;;;7.55;100.00;98956.70;107239;1272;95762;-79
2023/10/28 05:15:50;;;;;;;10.70;5.80;;;;;;;7.55;100.00;98959.56;107264;1272;95626;-80
2023/10/28 05:18:36;;;;;;;8.70;5.70;;;;;;;7.55;100.00;98966.66;107253;1273;101401;-79
2023/10/28 05:21:21;;;;;;;8.30;5.20;;;;;;;7.55;100.00;98965.97;107126;1273;100033;-80
2023/10/28 05:24:06;;;;;;;9.40;5.70;;;;;;;7.57;100.00;98968.23;107240;1273;97775;-80
2023/10/28 05:26:52;;;;;;;9.70;6.00;;;;;;;7.58;100.00;98973.43;107244;1273;95582;-79
2023/10/28 05:29:38;;;;;;;10.20;5.90;;;;;;;7.58;100.00;98975.73;107258;1272;95875;-80
2023/10/28 05:32:23;;;;;;;6.70;6.00;;;;;;;7.59;100.00;98980.16;107312;1272;102293;-80
2023/10/28 05:35:10;;;;;;;11.20;7.10;;;;;;;7.59;100.00;98982.65;107285;1273;100525;-80
2023/10/28 05:37:57;;;;;;;8.10;6.50;;;;;;;7.58;100.00;98988.73;107286;1272;97889;-79
2023/10/28 05:40:43;;;;;;;8.70;6.20;;;;;;;7.55;100.00;98992.36;107266;1272;95698;-80
2023/10/28 05:43:29;;;;;;;10.20;6.40;;;;;;;7.56;100.00;98999.17;107298;1273;95555;-79
2023/10/28 05:46:14;;;;;;;10.40;6.90;;;;;;;7.60;100.00;99003.17;107276;1273;102199;-79
2023/10/28 05:49:00;;;;;;;8.20;6.30;;;;;;;7.61;100.00;99000.48;107263;1273;100148;-79
2023/10/28 05:51:46;;;;;;;11.50;7.40;;;;;;;7.61;100.00;99003.02;107237;1273;98642;-79
2023/10/28 05:54:31;;;;;;;11.20;6.70;;;;;;;7.62;100.00;99008.83;107233;1273;95532;-80
2023/10/28 05:57:16;;;;;;;10.90;6.20;;;;;;;7.64;100.00;99012.00;107274;1272;95615;-79
2023/10/28 06:00:02;;;;;;;9.80;7.10;;;;;;;7.63;100.00;99012.95;107233;1273;101366;-79
2023/10/28 06:02:53;;;;;;;11.80;7.60;;;;;;;7.61;100.00;99017.86;107240;1273;100368;-80
2023/10/28 06:05:38;;;;;;;11.60;7.20;;;;;;;7.60;100.00;99016.91;107252;1272;98707;-79
2023/10/28 06:08:23;;;;;;;8.40;6.40;;;;;;;7.63;100.00;99020.97;107268;1272;95498;-79
2023/10/28 06:11:11;;;;;;;9.40;6.70;;;;;;;7.66;100.00;99028.92;107253;1272;94935;-80
2023/10/28 06:13:56;;;;;;;13.20;6.40;;;;;;;7.68;100.00;99030.40;107275;1273;101361;-79
2023/10/28 06:16:43;;;;;;;10.00;7.40;;;;;;;7.69;100.00;99032.41;107253;1273;99569;-80
2023/10/28 06:19:29;;;;;;;10.30;6.70;;;;;;;7.71;100.00;99035.03;107253;1272;99474;-79
2023/10/28 06:22:14;;;;;;;11.90;8.10;;;;;;;7.72;100.00;99035.60;107234;1272;95528;-79
2023/10/28 06:25:00;;;;;;;10.90;7.80;;;;;;;7.73;100.00;99039.17;107158;1272;96134;-79
2023/10/28 06:27:45;;;;;;;10.50;7.90;;;;;;;7.76;100.00;99037.05;107295;1273;102410;-80
2023/10/28 06:30:31;;;;;;;14.40;8.90;;;;;;;7.77;100.00;99039.70;107096;1276;99725;-79
2023/10/28 06:33:17;;;;;;;13.70;9.20;;;;;;;7.78;100.00;99046.05;107257;1272;97736;-79
2023/10/28 06:36:03;;;;;;;12.10;9.20;;;;;;;7.79;100.00;99052.48;107151;1272;95516;-79
2023/10/28 06:38:48;;;;;;;13.50;11.00;;;;;;;7.78;100.00;99059.41;107287;1273;95376;-79
2023/10/28 06:41:34;;;;;;;16.50;11.00;;;;;;;7.80;100.00;99065.16;107236;1273;101442;-79
2023/10/28 06:44:20;;;;;;;16.10;11.40;;;;;;;7.84;100.00;99068.16;107266;1272;100349;-80
2023/10/28 06:47:06;;;;;;;12.80;10.00;;;;;;;7.84;100.00;99069.05;107233;1272;97844;-79
2023/10/28 06:49:51;;;;;;;14.00;10.10;;;;;;;7.86;100.00;99069.09;106929;1272;95762;-89
2023/10/28 06:52:37;;;;;;;13.40;9.40;;;;;;;7.89;100.00;99067.20;107120;1273;95797;-84
2023/10/28 06:55:26;;;;;;;12.50;8.70;;;;;;;7.91;100.00;99070.28;107097;1273;101473;-87
2023/10/28 06:58:12;;;;;;;16.40;9.80;;;;;;;7.93;100.00;99076.10;106996;1272;99226;-85
2023/10/28 07:00:57;;;;;;;13.10;8.90;;;;;;;7.96;100.00;99080.20;107151;1273;97777;-86
2023/10/28 07:03:43;;;;;;;13.40;8.70;;;;;;;7.99;100.00;99083.94;107154;1273;95244;-88
2023/10/28 07:06:29;;;;;;;10.50;7.50;;;;;;;8.03;100.00;99087.21;106932;1273;95942;-86
2023/10/28 07:09:17;;;;;;;14.60;8.30;;;;;;;8.05;100.00;99091.09;107012;1273;101605;-86
2023/10/28 07:12:03;;;;;;;10.90;7.70;;;;;;;8.05;100.00;99094.88;106961;1272;99423;-87
2023/10/28 07:14:49;;;;;;;12.10;8.30;;;;;;;8.05;100.00;99094.67;106930;1273;99465;-86
2023/10/28 07:17:39;;;;;;;11.00;7.80;;;;;;;8.05;100.00;99096.75;107028;1279;95960;-90
2023/10/28 07:20:25;;;;;;;12.40;8.60;;;;;;;8.06;100.00;99099.59;107184;1273;94942;-83
2023/10/28 07:23:27;;;;;;;11.70;7.50;;;;;;;8.07;100.00;99099.64;107303;1273;102431;-89
2023/10/28 07:26:12;;;;;;;13.00;8.50;;;;;;;8.08;100.00;99101.11;107015;1273;100484;-88
2023/10/28 07:28:57;;;;;;;10.70;7.70;;;;;;;8.07;100.00;99105.42;106929;1273;98412;-80
2023/10/28 07:31:43;;;;;;;10.10;7.70;;;;;;;8.08;100.00;99111.32;107204;1273;95640;-87
2023/10/28 07:34:29;;;;;;;11.20;8.80;;;;;;;8.13;100.00;99115.99;106872;1276;95519;-87
2023/10/28 07:37:15;;;;;;;11.90;8.40;;;;;;;8.17;100.00;99120.09;107111;1273;102168;-87
2023/10/28 07:40:04;;;;;;;11.80;8.00;;;;;;;8.17;100.00;99124.05;106977;1272;99080;-88
2023/10/28 07:42:50;;;;;;;11.20;7.90;;;;;;;8.19;100.00;99128.51;106959;1275;99023;-86
2023/10/28 07:45:35;;;;;;;11.00;7.90;;;;;;;8.22;100.00;99127.88;106927;1272;95622;-84
2023/10/28 07:48:20;;;;;;;10.90;7.10;;;;;;;8.25;100.00;99128.23;107093;1273;95689;-78
2023/10/28 07:51:06;;;;;;;13.00;7.90;;;;;;;8.27;100.00;99130.61;107197;1273;101629;-78
2023/10/28 07:53:52;;;;;;;10.60;7.20;;;;;;;8.32;100.00;99137.27;107195;1273;99295;-79
2023/10/28 07:56:37;;;;;;;10.70;7.60;;;;;;;8.34;100.00;99138.73;107198;1273;99096;-79
2023/10/28 07:59:23;;;;;;;10.30;7.70;;;;;;;8.36;100.00;99141.33;107169;1273;95904;-79
2023/10/28 08:02:10;;;;;;;9.50;7.00;;;;;;;8.37;100.00;99140.49;107161;1272;95599;-79
2023/10/28 08:04:57;;;;;;;8.50;6.80;;;;;;;8.36;100.00;99141.57;107250;1273;103107;-86
2023/10/28 08:07:43;;;;;;;9.90;7.10;;;;;;;8.35;100.00;99146.25;107191;1273;100905;-89
2023/10/28 08:10:29;;;;;;;9.50;7.00;;;;;;;8.38;100.00;99150.68;107132;1272;99103;-87
2023/10/28 08:13:14;;;;;;;9.80;7.10;;;;;;;8.41;100.00;99154.73;107091;1276;95754;-88
2023/10/28 08:16:01;;;;;;;8.70;6.20;;;;;;;8.43;100.00;99159.05;107073;1273;95559;-88
2023/10/28 08:18:47;;;;;;;8.40;6.10;;;;;;;8.43;100.00;99162.01;106916;1273;102605;-82
2023/10/28 08:21:33;;;;;;;8.90;5.40;;;;;;;8.46;100.00;99165.57;106987;1273;99353;-85
2023/10/28 08:24:20;;;;;;;8.10;5.60;;;;;;;8.48;100.00;99163.30;107135;1272;97830;-85
2023/10/28 08:27:08;;;;;;;8.00;6.20;;;;;;;8.51;100.00;99172.29;107320;1274;95737;-84
2023/10/28 08:29:55;;;;;;;7.70;5.30;;;;;;;8.58;100.00;99176.95;106851;1273;95633;-83
2023/10/28 08:32:41;;;;;;;6.40;5.30;;;;;;;8.61;100.00;99179.91;107255;1273;101538;-83
2023/10/28 08:35:28;;;;;;;6.70;4.80;;;;;;;8.66;100.00;99183.51;107154;1272;100318;-84
2023/10/28 08:38:17;;;;;;;9.20;5.60;;;;;;;8.69;100.00;99183.42;107425;1273;99083;-88
2023/10/28 08:41:03;;;;;;;7.10;5.20;;;;;;;8.74;100.00;99192.41;107337;1279;95641;-87
2023/10/28 08:43:49;;;;;;;6.10;4.90;;;;;;;8.77;100.00;99196.75;107426;1273;95586;-79
2023/10/28 08:46:37;;;;;;;8.50;5.00;;;;;;;8.77;100.00;99195.33;107196;1272;101492;-80
2023/10/28 08:49:23;;;;;;;7.60;5.30;;;;;;;8.80;100.00;99202.69;106857;1273;99845;-79
2023/10/28 08:52:13;;;;;;;8.20;5.10;;;;;;;8.84;100.00;99200.96;107106;1272;107540;-78
2023/10/28 08:55:00;;;;;;;5.40;4.60;;;;;;;8.83;100.00;99204.37;106974;1273;95867;-79
2023/10/28 08:57:46;;;;;;;5.80;4.70;;;;;;;8.85;100.00;99206.84;107198;1272;96023;-79
2023/10/28 09:00:35;;;;;;;5.40;4.00;;;;;;;8.87;100.00;99209.54;107230;1272;101486;-79
2023/10/28 09:03:22;;;;;;;6.80;4.40;;;;;;;8.92;100.00;99212.86;107247;1273;99181;-78
2023/10/28 09:06:07;;;;;;;7.30;4.20;;;;;;;8.95;100.00;99213.63;107209;1273;97790;-85
2023/10/28 09:08:55;;;;;;;4.50;3.50;;;;;;;8.98;100.00;99214.93;107090;1273;95455;-86
2023/10/28 09:11:41;;;;;;;5.40;3.80;;;;;;;9.02;100.00;99220.48;107049;1273;95657;-86
2023/10/28 09:14:27;;;;;;;4.80;3.60;;;;;;;9.07;100.00;99223.13;107308;1273;101451;-88
2023/10/28 09:17:13;;;;;;;5.20;4.20;;;;;;;9.13;100.00;99222.53;106920;1273;100403;-87
2023/10/28 09:20:00;;;;;;;6.70;4.60;;;;;;;9.16;100.00;99226.87;107083;1273;97673;-86
2023/10/28 09:22:46;;;;;;;10.00;4.80;;;;;;;9.21;100.00;99223.29;106980;1274;95722;-88
2023/10/28 09:25:34;;;;;;;7.20;5.00;;;;;;;9.24;100.00;99228.40;107051;1272;95617;-87
2023/10/28 09:28:20;;;;;;;7.10;4.50;;;;;;;9.28;100.00;99231.23;107293;1272;101408;-85
2023/10/28 09:31:06;;;;;;;4.40;3.70;;;;;;;9.32;100.00;99232.15;107133;1273;100310;-85
2023/10/28 09:33:52;;;;;;;4.70;3.60;;;;;;;9.34;100.00;99234.32;107033;1273;97846;-84
2023/10/28 09:36:37;;;;;;;6.80;4.60;;;;;;;9.39;100.00;99238.17;107090;1273;95309;-85
2023/10/28 09:39:24;;;;;;;6.30;4.40;;;;;;;9.40;100.00;99240.19;107087;1273;95761;-84
2023/10/28 09:42:10;;;;;;;6.20;4.40;;;;;;;9.42;100.00;99245.16;106920;1273;102751;-85
2023/10/28 09:44:56;;;;;;;5.90;4.00;;;;;;;9.45;100.00;99249.66;106971;1273;100316;-85
2023/10/28 09:47:57;;;;;;;5.80;3.60;;;;;;;9.49;100.00;99250.33;106971;1273;97794;-85
2023/10/28 09:50:49;;;;;;;6.30;3.80;;;;;;;9.55;100.00;99249.82;107148;1273;95573;-86
2023/10/28 09:53:37;;;;;;;5.30;3.30;;;;;;;9.63;100.00;99250.27;107058;1272;95533;-86
2023/10/28 09:56:33;;;;;;;5.70;3.70;;;;;;;9.70;100.00;99253.86;107084;1273;102182;-84
2023/10/28 09:59:22;;;;;;;4.30;3.20;;;;;;;9.76;100.00;99252.06;107144;1273;99203;-89
2023/10/28 10:02:10;;;;;;;4.80;3.90;;;;;;;9.83;100.00;99249.92;106992;1279;99139;-86
2023/10/28 10:05:17;;;;;;;6.30;3.90;;;;;;;9.88;100.00;99250.92;107249;1274;95603;-86
2023/10/28 10:08:02;;;;;;;5.30;4.20;;;;;;;9.91;99.99;99252.47;107244;1273;95727;-83
2023/10/28 10:10:49;;;;;;;6.10;4.90;;;;;;;9.92;99.95;99256.13;107153;1273;102591;-89
2023/10/28 10:13:43;;;;;;;5.80;4.70;;;;;;;9.92;99.98;99264.52;106978;1273;100473;-86
2023/10/28 10:16:38;;;;;;;10.00;4.40;;;;;;;9.97;100.00;99265.34;106975;1272;99672;-85
2023/10/28 10:19:31;;;;;;;5.20;3.70;;;;;;;10.16;100.00;99261.88;106991;1273;95873;-83
2023/10/28 10:22:18;;;;;;;5.30;4.40;;;;;;;10.35;100.00;99257.79;107296;1273;95510;-86
2023/10/28 10:25:04;;;;;;;5.00;4.00;;;;;;;10.51;100.00;99248.73;106916;1276;102780;-86
2023/10/28 10:27:50;;;;;;;6.10;5.00;;;;;;;10.61;100.00;99250.79;106879;1273;100504;-84
2023/10/28 10:30:36;;;;;;;8.30;6.50;;;;;;;10.63;100.00;99255.21;107060;1276;97885;-86
2023/10/28 10:33:26;;;;;;;7.90;5.10;;;;;;;10.60;99.87;99261.16;106859;1273;95367;-78
2023/10/28 10:36:21;;;;;;;11.20;5.60;;;;;;;10.59;99.42;99267.98;107023;1272;97180;-78
2023/10/28 10:39:20;;;;;;;8.40;5.50;;;;;;;10.56;99.35;99275.82;107181;1273;101245;-79
2023/10/28 10:42:07;;;;;;;7.10;5.90;;;;;;;10.52;98.91;99275.16;107095;1272;110218;-79
2023/10/28 10:44:52;;;;;;;7.10;6.10;;;;;;;10.49;99.31;99275.27;107039;1273;97777;-80
2023/10/28 10:47:38;;;;;;;9.00;6.20;;;;;;;10.46;98.75;99278.42;107096;1273;95599;-79
2023/10/28 10:50:24;;;;;;;6.40;5.50;;;;;;;10.43;98.75;99282.44;107153;1273;95744;-79
2023/10/28 10:53:09;;;;;;;7.20;6.30;;;;;;;10.40;98.68;99278.30;107221;1273;101421;-78
2023/10/28 10:55:56;;;;;;;8.20;5.70;;;;;;;10.39;98.33;99277.99;107210;1273;100151;-79
2023/10/28 10:58:41;;;;;;;8.60;6.20;;;;;;;10.38;98.45;99276.88;106974;1273;98582;-81
2023/10/28 11:01:27;;;;;;;8.80;6.40;;;;;;;10.37;98.54;99277.30;107016;1278;95592;-79
2023/10/28 11:04:12;;;;;;;7.00;5.60;;;;;;;10.37;98.79;99275.07;107072;1273;96275;-79
2023/10/28 11:06:58;;;;;;;7.60;6.40;;;;;;;10.39;99.24;99271.71;107165;1273;102669;-79
2023/10/28 11:09:43;;;;;;;9.60;6.30;;;;;;;10.41;99.41;99265.20;107195;1273;100431;-80
2023/10/28 11:12:28;;;;;;;7.90;5.80;;;;;;;10.42;99.11;99262.60;107179;1273;98330;-80
2023/10/28 11:15:13;;;;;;;7.40;6.10;;;;;;;10.41;98.68;99266.85;107158;1274;95651;-79
2023/10/28 11:17:59;;;;;;;8.40;6.30;;;;;;;10.40;98.72;99273.36;107138;1273;95905;-79
2023/10/28 11:20:45;;;;;;;7.50;6.20;;;;;;;10.39;98.28;99277.66;107181;1274;101397;-78
2023/10/28 11:23:31;;;;;;;10.20;6.60;;;;;;;10.39;98.67;99277.77;107198;1273;99107;-78
2023/10/28 11:26:19;;;;;;;7.70;5.90;;;;;;;10.41;98.90;99276.19;107177;1276;99097;-83
2023/10/28 11:29:06;;;;;;;7.40;5.90;;;;;;;10.41;98.11;99274.95;106883;1272;95742;-78
2023/10/28 11:31:53;;;;;;;8.80;6.70;;;;;;;10.39;97.99;99272.78;107185;1273;96940;-77
2023/10/28 11:34:40;;;;;;;9.50;6.20;;;;;;;10.40;98.33;99273.77;107239;1273;102637;-80
2023/10/28 11:37:25;;;;;;;7.70;6.10;;;;;;;10.42;98.38;99275.23;107159;1276;99165;-79
2023/10/28 11:40:19;;;;;;;8.30;7.30;;;;;;;10.44;98.64;99279.80;107214;1273;97736;-87
2023/10/28 11:43:05;;;;;;;9.50;8.50;;;;;;;10.46;98.79;99286.75;106998;1275;95623;-89
2023/10/28 11:45:50;;;;;;;12.50;8.10;;;;;;;10.48;98.95;99292.04;107022;1273;95607;-85
2023/10/28 11:48:36;;;;;;;18.50;12.70;;;;;;;10.50;99.45;99296.72;106999;1274;102750;-86
2023/10/28 11:51:23;;;;;;;14.50;12.50;;;;;;;10.49;99.68;99295.66;106934;1273;99236;-86
2023/10/28 11:54:09;;;;;;;16.40;14.10;;;;;;;10.47;99.93;99293.31;106911;1278;98449;-87
2023/10/28 11:56:54;;;;;;;21.10;13.70;;;;;;;10.48;100.00;99292.54;107129;1274;96017;-86
2023/10/28 11:59:40;;;;;;;13.40;11.80;;;;;;;10.48;100.00;99295.05;107119;1274;95588;-87
2023/10/28 12:02:26;;;;;;;18.80;14.50;;;;;;;10.47;100.00;99301.18;106994;1276;101476;-87
2023/10/28 12:05:12;;;;;;;17.50;12.00;;;;;;;10.48;100.00;99306.86;106944;1273;99061;-87
2023/10/28 12:07:57;;;;;;;16.90;12.40;;;;;;;10.48;100.00;99305.06;107027;1273;97750;-79
2023/10/28 12:10:43;;;;;;;17.90;12.80;;;;;;;10.53;100.00;99304.85;107245;1274;95651;-88
2023/10/28 12:13:31;;;;;;;17.40;12.30;;;;;;;10.58;100.00;99308.45;106944;1272;95780;-88
2023/10/28 12:16:17;;;;;;;15.30;12.10;;;;;;;10.55;100.00;99310.48;107005;1273;101441;-88
2023/10/28 12:19:02;;;;;;;16.70;12.80;;;;;;;10.51;100.00;99315.29;106955;1272;99299;-88
2023/10/28 12:21:48;;;;;;;19.80;12.80;;;;;;;10.50;100.00;99313.82;107016;1273;97662;-87
2023/10/28 12:24:34;;;;;;;14.20;11.30;;;;;;;10.48;100.00;99311.06;107049;1274;95474;-85
2023/10/28 12:27:20;;;;;;;20.60;12.20;;;;;;;10.49;100.00;99312.90;107003;1273;96274;-86
2023/10/28 12:30:08;;;;;;;15.50;11.70;;;;;;;10.47;100.00;99316.19;106906;1272;102007;-86
2023/10/28 12:32:53;;;;;;;19.60;14.00;;;;;;;10.45;100.00;99321.14;106955;1273;100238;-87
2023/10/28 12:35:39;;;;;;;15.50;12.10;;;;;;;10.45;100.00;99322.83;106963;1273;99285;-79
2023/10/28 12:38:26;;;;;;;19.60;13.80;;;;;;;10.45;100.00;99322.84;107109;1274;95672;-80
2023/10/28 12:41:12;;;;;;;18.30;14.40;;;;;;;10.43;100.00;99323.91;107280;1273;95603;-80
2023/10/28 12:43:57;;;;;;;17.00;13.60;;;;;;;10.41;100.00;99327.96;107293;1274;101387;-80
2023/10/28 12:46:42;;;;;;;18.40;14.10;;;;;;;10.40;100.00;99331.48;107280;1273;100471;-80